Time;durP1;ratioP1;P1;durP2;ratioP2;P2;SDS_P1;SDS_P2;PMS_P1;PMS_P2;Temp;Humidity;BMP_temperature;BMP_pressure;BME280_temperature;BME280_humidity;BME280_pressure;Samples;Min_cycle;Max_cycle;Signal;HPM_P1;HPM_P2
2023/01/10 00:03:36;;;;;;;1999.90;999.90;;;;;;;4.82;100.00;101106.13;10339628;28;20053;-67
2023/01/10 00:08:38;;;;;;;1999.90;999.90;;;;;;;4.94;100.00;101109.22;10341376;28;20101;-68
2023/01/10 00:13:41;;;;;;;1999.90;999.90;;;;;;;4.69;100.00;101122.03;10339947;28;20054;-67
2023/01/10 00:18:44;;;;;;;1999.90;999.90;;;;;;;4.74;100.00;101127.94;10340305;28;20055;-67
2023/01/10 00:23:47;;;;;;;1999.90;999.90;;;;;;;4.86;100.00;101143.19;10340316;28;20054;-68
2023/01/10 00:28:51;;;;;;;1999.90;999.90;;;;;;;4.91;100.00;101143.91;10340578;28;20051;-67
2023/01/10 00:33:53;;;;;;;1999.90;999.90;;;;;;;4.96;100.00;101148.94;10339039;28;20050;-67
2023/01/10 00:38:55;;;;;;;1999.90;999.90;;;;;;;4.98;100.00;101171.38;10339462;28;20038;-67
2023/01/10 00:43:58;;;;;;;1999.90;999.90;;;;;;;5.07;100.00;101165.06;10338042;28;20054;-67
2023/01/10 00:49:02;;;;;;;1999.90;999.90;;;;;;;4.88;100.00;101180.31;10339281;28;20401;-67
2023/01/10 00:54:04;;;;;;;1999.90;999.90;;;;;;;4.81;100.00;101187.41;10338068;28;20482;-68
2023/01/10 00:59:07;;;;;;;1999.90;999.90;;;;;;;4.88;100.00;101184.66;10338873;28;20046;-67
2023/01/10 01:04:09;;;;;;;1999.90;999.90;;;;;;;4.75;100.00;101205.72;10338619;28;20101;-67
2023/01/10 01:09:12;;;;;;;1999.90;999.90;;;;;;;4.56;100.00;101205.38;10339071;28;20050;-67
2023/01/10 01:14:14;;;;;;;1999.90;999.90;;;;;;;4.70;100.00;101235.28;10337125;28;20109;-67
2023/01/10 01:19:17;;;;;;;1999.90;999.90;;;;;;;4.75;100.00;101233.44;10336833;28;20057;-68
2023/01/10 01:24:20;;;;;;;1999.90;999.90;;;;;;;4.74;100.00;101237.78;10335855;28;20053;-67
2023/01/10 01:29:23;;;;;;;1999.90;999.90;;;;;;;4.72;100.00;101236.94;10338357;28;20042;-67
2023/01/10 01:34:31;;;;;;;1999.90;999.90;;;;;;;4.73;100.00;101237.81;10337362;28;20062;-66
2023/01/10 01:39:33;;;;;;;1999.90;999.90;;;;;;;4.59;100.00;101241.59;10336734;28;20069;-67
2023/01/10 01:44:38;;;;;;;1999.90;999.90;;;;;;;4.61;100.00;101252.78;10336208;28;20452;-68
2023/01/10 01:49:43;;;;;;;1999.90;999.90;;;;;;;4.62;100.00;101254.50;10336329;28;20050;-67
2023/01/10 01:54:45;;;;;;;1999.90;999.90;;;;;;;4.61;100.00;101249.34;10336801;28;20050;-68
2023/01/10 01:59:50;;;;;;;1999.90;999.90;;;;;;;4.53;100.00;101265.09;10318313;28;20513;-68
2023/01/10 02:05:03;;;;;;;1999.90;999.90;;;;;;;4.56;100.00;101270.22;10334343;28;20505;-67
2023/01/10 02:10:10;;;;;;;1999.90;999.90;;;;;;;4.45;100.00;101267.91;10335020;28;20050;-68
2023/01/10 02:15:12;;;;;;;1999.90;999.90;;;;;;;4.50;100.00;101277.28;10335332;28;20054;-67
2023/01/10 02:20:17;;;;;;;1999.90;999.90;;;;;;;4.31;100.00;101279.47;10332481;28;20042;-67
2023/01/10 02:25:50;;;;;;;1999.90;999.90;;;;;;;4.63;100.00;101281.28;10309053;28;20054;-67
2023/01/10 02:30:52;;;;;;;1999.90;999.90;;;;;;;4.73;100.00;101289.69;10335998;28;20101;-67
2023/01/10 02:36:09;;;;;;;1999.90;999.90;;;;;;;4.77;100.00;101297.34;10335100;28;20451;-67
2023/01/10 02:41:30;;;;;;;1999.90;999.90;;;;;;;4.74;100.00;101309.53;10334788;28;20050;-66
2023/01/10 02:46:33;;;;;;;1999.90;999.90;;;;;;;4.80;100.00;101315.44;10333828;28;20054;-67
2023/01/10 02:51:35;;;;;;;1999.90;999.90;;;;;;;4.94;100.00;101320.28;10340810;23;20065;-65
2023/01/10 02:57:13;;;;;;;1999.90;999.90;;;;;;;5.04;100.00;101320.88;10334363;28;20556;-65
2023/01/10 03:02:23;;;;;;;1999.90;999.90;;;;;;;4.95;100.00;101311.59;10293508;28;20051;-65
2023/01/10 03:07:53;;;;;;;1999.90;999.90;;;;;;;4.88;100.00;101307.47;10327931;28;20060;-65
2023/01/10 03:13:02;;;;;;;1999.90;999.90;;;;;;;4.72;100.00;101324.28;10333385;28;20050;-65
2023/01/10 03:18:15;;;;;;;1999.90;999.90;;;;;;;4.77;100.00;101333.66;10332270;28;20053;-65
2023/01/10 03:23:17;;;;;;;1999.90;999.90;;;;;;;4.66;100.00;101340.88;10333202;28;20076;-65
2023/01/10 03:28:31;;;;;;;1999.90;999.90;;;;;;;4.72;100.00;101345.88;10331557;28;20081;-65
2023/01/10 03:33:34;;;;;;;1999.90;999.90;;;;;;;4.64;100.00;101371.19;10334303;28;20057;-65
2023/01/10 03:38:54;;;;;;;1999.90;999.90;;;;;;;4.76;100.00;101370.03;10340211;28;20046;-65
2023/01/10 03:49:38;;;;;;;1999.90;999.90;;;;;;;4.64;100.00;101387.59;10340972;28;20073;-65
2023/01/10 03:54:42;;;;;;;1999.90;999.90;;;;;;;4.73;100.00;101396.06;10340752;28;20054;-65
2023/01/10 03:59:45;;;;;;;1999.90;999.90;;;;;;;4.63;100.00;101398.00;10340231;28;20073;-65
2023/01/10 04:04:48;;;;;;;1999.90;999.90;;;;;;;4.66;100.00;101408.31;10339346;28;20054;-65
2023/01/10 04:09:50;;;;;;;1999.90;999.90;;;;;;;4.81;100.00;101405.34;10340719;28;20054;-65
2023/01/10 04:14:52;;;;;;;1999.90;999.90;;;;;;;4.73;100.00;101389.13;10339555;28;20054;-65
2023/01/10 04:19:54;;;;;;;1999.90;999.90;;;;;;;4.70;100.00;101401.31;10338451;28;20401;-65
2023/01/10 04:24:57;;;;;;;1999.90;999.90;;;;;;;4.67;100.00;101411.75;10339154;28;20054;-65
2023/01/10 04:29:59;;;;;;;1999.90;999.90;;;;;;;4.68;100.00;101411.72;10340121;28;20062;-65
2023/01/10 04:35:01;;;;;;;1999.90;999.90;;;;;;;4.61;100.00;101418.78;10340384;28;20050;-65
2023/01/10 04:40:04;;;;;;;1999.90;999.90;;;;;;;4.67;100.00;101424.72;10339416;28;20046;-65
2023/01/10 04:45:10;;;;;;;1999.90;999.90;;;;;;;4.78;100.00;101425.34;10336051;28;20057;-65
2023/01/10 04:50:12;;;;;;;1999.90;999.90;;;;;;;4.62;100.00;101430.00;10339511;28;20058;-65
2023/01/10 04:55:15;;;;;;;1999.90;999.90;;;;;;;4.70;100.00;101435.88;10337725;28;20057;-65
2023/01/10 05:00:18;;;;;;;1999.90;999.90;;;;;;;4.71;100.00;101441.91;10339404;28;20055;-65
2023/01/10 05:05:20;;;;;;;1999.90;999.90;;;;;;;4.70;100.00;101448.00;10337626;28;20081;-65
2023/01/10 05:10:22;;;;;;;1999.90;999.90;;;;;;;4.76;100.00;101453.06;10339053;28;20053;-65
2023/01/10 05:15:25;;;;;;;1999.90;999.90;;;;;;;4.77;100.00;101458.19;10336931;28;20361;-65
2023/01/10 05:20:27;;;;;;;1999.90;999.90;;;;;;;4.67;100.00;101467.06;10338622;28;20053;-65
2023/01/10 05:25:29;;;;;;;1999.90;999.90;;;;;;;4.74;100.00;101462.59;10336853;28;20054;-65
2023/01/10 05:30:32;;;;;;;1999.90;999.90;;;;;;;4.78;100.00;101457.31;10337667;28;20046;-65
2023/01/10 05:35:34;;;;;;;1999.90;999.90;;;;;;;4.74;100.00;101470.38;10337465;28;20058;-65
2023/01/10 05:40:36;;;;;;;1999.90;999.90;;;;;;;4.58;100.00;101482.84;10336805;28;20050;-65
2023/01/10 05:45:39;;;;;;;1999.90;999.90;;;;;;;4.56;100.00;101502.78;10335060;28;20100;-65
2023/01/10 05:50:41;;;;;;;1999.90;999.90;;;;;;;4.60;100.00;101525.16;10336706;28;20086;-65
2023/01/10 05:55:43;;;;;;;1999.90;999.90;;;;;;;4.64;100.00;101508.66;10337173;28;20096;-65
2023/01/10 06:00:46;;;;;;;1999.90;999.90;;;;;;;4.52;100.00;101520.13;10335117;28;20057;-65
2023/01/10 06:05:48;;;;;;;1999.90;999.90;;;;;;;4.52;100.00;101524.44;10335311;28;20050;-65
2023/01/10 06:10:51;;;;;;;1999.90;999.90;;;;;;;4.64;100.00;101542.38;10335707;28;20050;-65
2023/01/10 06:15:53;;;;;;;1999.90;999.90;;;;;;;4.80;100.00;101535.13;10334929;28;20047;-65
2023/01/10 06:20:55;;;;;;;1999.90;999.90;;;;;;;4.81;100.00;101527.28;10336214;28;20054;-65
2023/01/10 06:25:58;;;;;;;1999.90;999.90;;;;;;;4.84;100.00;101531.56;10333326;28;20054;-65
2023/01/10 06:31:00;;;;;;;1999.90;999.90;;;;;;;4.74;100.00;101548.19;10333728;28;20548;-65
2023/01/10 06:36:02;;;;;;;1999.90;999.90;;;;;;;4.79;100.00;101548.97;10334861;28;20050;-65
2023/01/10 06:41:11;;;;;;;1999.90;999.90;;;;;;;4.75;100.00;101555.13;10335559;28;20050;-65
2023/01/10 06:46:18;;;;;;;1999.90;999.90;;;;;;;5.01;100.00;101568.38;10333562;28;20050;-65
2023/01/10 06:51:20;;;;;;;1999.90;999.90;;;;;;;5.01;100.00;101565.78;10333545;28;20058;-65
2023/01/10 06:56:22;;;;;;;1999.90;999.90;;;;;;;4.87;100.00;101578.19;10333455;28;20413;-65
2023/01/10 07:01:25;;;;;;;1999.90;999.90;;;;;;;5.01;100.00;101604.72;10335464;28;20050;-64
2023/01/10 07:06:27;;;;;;;1999.90;999.90;;;;;;;5.03;100.00;101602.94;10334039;28;20054;-65
2023/01/10 07:11:30;;;;;;;1999.90;999.90;;;;;;;5.12;100.00;101599.28;10333409;28;20494;-65
2023/01/10 07:16:33;;;;;;;1999.90;999.90;;;;;;;5.13;100.00;101600.16;10334515;28;20054;-65
2023/01/10 07:21:35;;;;;;;1999.90;999.90;;;;;;;5.14;100.00;101599.25;10331658;28;20486;-65
2023/01/10 07:26:38;;;;;;;1999.90;999.90;;;;;;;5.15;100.00;101622.59;10332245;28;20057;-65
2023/01/10 07:31:40;;;;;;;1999.90;999.90;;;;;;;5.10;100.00;101628.78;10334190;28;20062;-65
2023/01/10 07:36:42;;;;;;;1999.90;999.90;;;;;;;5.07;100.00;101641.81;10333121;28;20050;-65
2023/01/10 07:41:47;;;;;;;1999.90;999.90;;;;;;;4.92;100.00;101646.41;10353423;28;20046;-64
2023/01/10 07:46:50;;;;;;;1999.90;999.90;;;;;;;4.83;100.00;101650.06;10353672;28;20420;-65
2023/01/10 07:51:52;;;;;;;1999.90;999.90;;;;;;;4.79;100.00;101670.91;10372248;28;20046;-65
2023/01/10 07:56:54;;;;;;;1999.90;999.90;;;;;;;4.59;100.00;101677.34;10338769;28;20108;-65
2023/01/10 08:01:57;;;;;;;1999.90;999.90;;;;;;;4.72;100.00;101684.88;10332902;28;20054;-65
2023/01/10 08:06:59;;;;;;;1999.90;999.90;;;;;;;4.67;100.00;101676.34;10332905;28;20058;-65
2023/01/10 08:12:02;;;;;;;1999.90;999.90;;;;;;;4.45;100.00;101685.38;10331055;28;20046;-65
2023/01/10 08:17:04;;;;;;;1999.90;999.90;;;;;;;4.53;100.00;101690.41;10332785;28;20050;-64
2023/01/10 08:22:06;;;;;;;1999.90;999.90;;;;;;;4.65;100.00;101702.31;10337331;28;20444;-65
2023/01/10 08:27:09;;;;;;;1999.90;999.90;;;;;;;4.92;100.00;101700.06;10340760;28;20105;-65
2023/01/10 08:32:11;;;;;;;1999.90;999.90;;;;;;;4.95;100.00;101703.47;10338708;28;20054;-65
2023/01/10 08:37:14;;;;;;;1999.90;999.90;;;;;;;5.07;100.00;101704.13;10349468;28;20047;-65
2023/01/10 08:42:17;;;;;;;1999.90;999.90;;;;;;;4.91;100.00;101701.81;10338310;28;20050;-65
2023/01/10 08:47:19;;;;;;;1999.90;999.90;;;;;;;5.29;100.00;101696.72;10338222;28;20064;-65
2023/01/10 08:52:22;;;;;;;1999.90;999.90;;;;;;;5.23;100.00;101692.53;10338119;28;20101;-65
2023/01/10 08:57:24;;;;;;;1999.90;999.90;;;;;;;5.36;100.00;101680.13;10338846;28;20096;-65
2023/01/10 09:02:26;;;;;;;1999.90;999.90;;;;;;;5.58;100.00;101683.97;10337014;28;20556;-65
2023/01/10 09:07:29;;;;;;;1999.90;999.90;;;;;;;5.35;100.00;101681.88;10342253;28;20057;-65
2023/01/10 09:18:00;;;;;;;1999.90;999.90;;;;;;;5.46;100.00;101684.22;10345748;28;20408;-65
2023/01/10 09:23:10;;;;;;;1999.90;999.90;;;;;;;5.65;100.00;101689.91;10349125;28;20042;-65
2023/01/10 09:28:13;;;;;;;1999.90;999.90;;;;;;;5.75;100.00;101674.97;10337095;28;20058;-65
2023/01/10 09:33:15;;;;;;;1999.90;999.90;;;;;;;5.81;100.00;101674.78;10335643;28;20061;-65
2023/01/10 09:38:18;;;;;;;1999.90;999.90;;;;;;;6.01;100.00;101669.16;10334291;28;20054;-65
2023/01/10 09:43:58;;;;;;;1999.90;999.90;;;;;;;6.21;100.00;101667.81;10344330;28;20460;-66
2023/01/10 09:49:41;;;;;;;1999.90;999.90;;;;;;;6.21;100.00;101673.88;10315728;28;20453;-65
2023/01/10 09:54:44;;;;;;;1999.90;999.90;;;;;;;5.87;100.00;101676.41;10351785;28;20054;-65
2023/01/10 09:59:50;;;;;;;1999.90;999.90;;;;;;;6.15;100.00;101668.81;10352780;28;20112;-65
2023/01/10 10:05:20;;;;;;;1999.90;999.90;;;;;;;6.16;100.00;101680.09;10337050;28;20050;-65
2023/01/10 10:10:44;;;;;;;1999.90;999.90;;;;;;;5.64;100.00;101675.19;10345817;28;20046;-65
2023/01/10 10:16:13;;;;;;;1999.90;999.90;;;;;;;6.01;100.00;101682.16;10359871;28;20058;-65
2023/01/10 10:21:48;;;;;;;1999.90;999.90;;;;;;;5.84;100.00;101676.47;10325767;28;20050;-65
2023/01/10 10:27:20;;;;;;;1999.90;999.90;;;;;;;6.13;100.00;101663.63;10333375;28;20065;-65
2023/01/10 10:32:30;;;;;;;1999.90;999.90;;;;;;;6.33;100.00;101657.09;10334143;28;20051;-65
2023/01/10 10:37:40;;;;;;;1999.90;999.90;;;;;;;5.95;100.00;101645.88;10333401;28;20054;-65
2023/01/10 10:42:48;;;;;;;1999.90;999.90;;;;;;;6.29;100.00;101640.72;10329057;28;20522;-65
2023/01/10 10:48:00;;;;;;;1999.90;999.90;;;;;;;6.47;100.00;101630.72;10327203;28;20066;-66
2023/01/10 10:53:03;;;;;;;1999.90;999.90;;;;;;;6.39;100.00;101619.66;10338237;28;20437;-66
2023/01/10 10:58:09;;;;;;;1999.90;999.90;;;;;;;6.65;100.00;101626.75;10326771;28;20481;-65
2023/01/10 11:03:20;;;;;;;1999.90;999.90;;;;;;;6.68;100.00;101613.66;10320534;28;20054;-66
2023/01/10 11:08:23;;;;;;;1999.90;999.90;;;;;;;6.65;100.00;101609.38;10320448;28;20062;-65
2023/01/10 11:13:48;;;;;;;1999.90;999.90;;;;;;;6.55;100.00;101609.69;10327534;28;20046;-65
2023/01/10 11:19:08;;;;;;;1999.90;999.90;;;;;;;6.25;100.00;101605.25;10329067;28;20069;-65
2023/01/10 11:24:27;;;;;;;1999.90;999.90;;;;;;;6.39;100.00;101598.84;10316716;28;20385;-65
2023/01/10 11:29:37;;;;;;;1999.90;999.90;;;;;;;6.74;100.00;101594.41;10300729;28;20401;-65
2023/01/10 11:34:40;;;;;;;1999.90;999.90;;;;;;;6.46;100.00;101595.19;10328879;28;20046;-65
2023/01/10 11:39:43;;;;;;;1999.90;999.90;;;;;;;6.65;100.00;101585.97;10330820;28;20050;-66
2023/01/10 11:44:45;;;;;;;1999.90;999.90;;;;;;;6.65;100.00;101580.75;10328959;28;20050;-65
2023/01/10 11:49:49;;;;;;;1999.90;999.90;;;;;;;6.60;100.00;101574.84;10345005;28;20047;-65
2023/01/10 11:54:53;;;;;;;1999.90;999.90;;;;;;;6.52;100.00;101582.00;10330368;28;20489;-65
2023/01/10 12:00:03;;;;;;;1999.90;999.90;;;;;;;6.30;100.00;101568.75;10336258;28;20489;-65
2023/01/10 12:05:23;;;;;;;1999.90;999.90;;;;;;;6.44;100.00;101564.03;10340624;28;20050;-65
2023/01/10 12:10:27;;;;;;;1999.90;999.90;;;;;;;6.46;100.00;101564.00;10339875;28;20476;-65
2023/01/10 12:15:30;;;;;;;1999.90;999.90;;;;;;;6.51;100.00;101569.91;10339538;28;20058;-65
2023/01/10 12:20:43;;;;;;;1999.90;999.90;;;;;;;6.53;100.00;101552.50;10339254;28;20398;-65
2023/01/10 12:25:45;;;;;;;1999.90;999.90;;;;;;;6.41;100.00;101537.25;10340327;28;20449;-65
2023/01/10 12:30:52;;;;;;;1999.90;999.90;;;;;;;6.46;100.00;101533.59;10339562;28;20051;-65
2023/01/10 12:36:08;;;;;;;1999.90;999.90;;;;;;;6.38;100.00;101529.53;10338793;28;20512;-65
2023/01/10 12:44:09;;;;;;;1999.90;999.90;;;;;;;6.53;100.00;101528.25;10338432;28;20042;-65
2023/01/10 12:46:48;;;;;;;1999.90;999.90;;;;;;;6.47;100.00;101513.63;10339218;28;20046;-65
2023/01/10 12:52:30;;;;;;;1999.90;999.90;;;;;;;6.50;100.00;101501.41;10338713;28;20089;-65
2023/01/10 12:57:36;;;;;;;;;;;;;;;6.58;100.00;101502.94;10339022;28;20050;-65
2023/01/10 13:02:44;;;;;;;1999.90;999.90;;;;;;;6.64;100.00;101497.53;10338266;28;19948;-65
2023/01/10 13:07:48;;;;;;;1999.90;999.90;;;;;;;6.58;100.00;101487.34;10337217;28;20050;-65
2023/01/10 13:13:02;;;;;;;1999.90;999.90;;;;;;;6.47;100.00;101475.50;10337318;28;20051;-65
2023/01/10 13:18:25;;;;;;;1999.90;999.90;;;;;;;6.55;100.00;101466.59;10337855;28;20058;-65
2023/01/10 13:23:32;;;;;;;1999.90;999.90;;;;;;;6.61;100.00;101463.81;10336934;28;20054;-65
2023/01/10 13:28:37;;;;;;;1999.90;999.90;;;;;;;6.63;100.00;101451.63;10336937;28;20086;-65
2023/01/10 13:34:00;;;;;;;1999.90;999.90;;;;;;;6.69;100.00;101431.47;10338731;28;20058;-65
2023/01/10 13:39:07;;;;;;;1999.90;999.90;;;;;;;6.60;100.00;101431.72;10337249;28;20054;-65
2023/01/10 13:44:11;;;;;;;1999.90;999.90;;;;;;;6.54;100.00;101421.53;10336872;28;20050;-65
2023/01/10 13:49:13;;;;;;;1999.90;999.90;;;;;;;6.59;100.00;101408.34;10335958;28;20065;-65
2023/01/10 13:54:15;;;;;;;1999.90;999.90;;;;;;;6.64;100.00;101389.13;10336863;28;20050;-65
2023/01/10 14:04:51;;;;;;;1999.90;999.90;;;;;;;6.79;100.00;101373.91;10336527;28;20058;-65
2023/01/10 14:10:03;;;;;;;1999.90;999.90;;;;;;;6.69;100.00;101371.59;10335800;28;20046;-65
2023/01/10 14:15:28;;;;;;;1999.90;999.90;;;;;;;6.75;100.00;101367.09;10335757;28;20050;-65
2023/01/10 14:20:33;;;;;;;1999.90;999.90;;;;;;;6.83;100.00;101365.09;10334650;28;20081;-65
2023/01/10 14:25:37;;;;;;;1999.90;999.90;;;;;;;6.94;100.00;101357.78;10334560;28;20500;-65
2023/01/10 14:30:40;;;;;;;1999.90;999.90;;;;;;;6.86;100.00;101345.03;10334962;28;20046;-65
2023/01/10 14:35:45;;;;;;;1999.90;999.90;;;;;;;6.85;100.00;101351.13;10334757;28;20054;-65
2023/01/10 14:40:50;;;;;;;1999.90;999.90;;;;;;;6.92;100.00;101338.75;10333910;28;20128;-65
2023/01/10 14:46:19;;;;;;;1999.90;999.90;;;;;;;6.95;100.00;101340.44;10333791;28;20461;-65
2023/01/10 14:51:28;;;;;;;1999.90;999.90;;;;;;;7.02;100.00;101331.50;10334491;28;20054;-65
2023/01/10 14:56:42;;;;;;;1999.90;999.90;;;;;;;6.82;100.00;101319.16;10335252;28;20050;-65
2023/01/10 15:01:48;;;;;;;1999.90;999.90;;;;;;;6.61;100.00;101305.09;10334982;28;20042;-65
2023/01/10 15:07:11;;;;;;;1999.90;999.90;;;;;;;6.35;100.00;101303.34;10325144;23;20082;-67
2023/01/10 15:12:14;;;;;;;1999.90;999.90;;;;;;;6.33;100.00;101288.63;10349883;28;20050;-67
2023/01/10 15:17:19;;;;;;;1999.90;999.90;;;;;;;6.29;100.00;101278.38;10349099;28;20505;-67
2023/01/10 15:22:30;;;;;;;1999.90;999.90;;;;;;;6.21;100.00;101276.00;10334511;28;20050;-67
2023/01/10 15:27:33;;;;;;;1999.90;999.90;;;;;;;6.11;100.00;101264.19;10350299;28;20137;-67
2023/01/10 15:32:38;;;;;;;1999.90;999.90;;;;;;;6.06;100.00;101256.53;10348757;28;20285;-67
2023/01/10 15:37:49;;;;;;;1999.90;999.90;;;;;;;5.98;100.00;101250.72;10332765;28;20104;-67
2023/01/10 15:42:57;;;;;;;1999.90;999.90;;;;;;;5.97;100.00;101248.16;10330739;28;20046;-66
2023/01/10 15:48:02;;;;;;;1999.90;999.90;;;;;;;5.92;100.00;101227.50;10329450;28;20076;-66
2023/01/10 15:53:08;;;;;;;1999.90;999.90;;;;;;;5.82;100.00;101244.28;10333910;28;20050;-67
2023/01/10 15:58:33;;;;;;;1999.90;999.90;;;;;;;5.92;100.00;101224.91;10329528;28;20047;-67
2023/01/10 16:03:44;;;;;;;1999.90;999.90;;;;;;;5.80;100.00;101212.28;10348498;28;20053;-67
2023/01/10 16:08:53;;;;;;;1999.90;999.90;;;;;;;5.79;100.00;101185.44;10332945;28;20054;-66
2023/01/10 16:13:56;;;;;;;1999.90;999.90;;;;;;;5.72;100.00;101181.34;10347194;28;20050;-65
2023/01/10 16:18:59;;;;;;;1999.90;999.90;;;;;;;5.71;100.00;101188.28;10330119;28;20405;-67
2023/01/10 16:24:04;;;;;;;1999.90;999.90;;;;;;;5.59;100.00;101186.91;10331337;28;20472;-67
2023/01/10 16:29:06;;;;;;;1999.90;999.90;;;;;;;5.57;100.00;101175.72;10332908;28;20081;-66
2023/01/10 16:34:09;;;;;;;1999.90;999.90;;;;;;;5.56;100.00;101184.44;10331821;28;20042;-66
2023/01/10 16:39:16;;;;;;;1999.90;999.90;;;;;;;5.45;100.00;101188.25;10331434;28;20054;-66
2023/01/10 16:44:18;;;;;;;1999.90;999.90;;;;;;;5.57;100.00;101172.28;10335981;28;20054;-66
2023/01/10 16:49:21;;;;;;;1999.90;999.90;;;;;;;5.44;100.00;101156.22;10355092;28;20050;-66
2023/01/10 16:54:24;;;;;;;1999.90;999.90;;;;;;;5.43;100.00;101138.94;10337487;28;20085;-66
2023/01/10 16:59:27;;;;;;;1999.90;999.90;;;;;;;5.61;100.00;101140.09;10335940;28;20057;-66
2023/01/10 17:04:31;;;;;;;1999.90;999.90;;;;;;;5.65;100.00;101115.75;10338297;28;20062;-66
2023/01/10 17:09:34;;;;;;;1999.90;999.90;;;;;;;5.50;100.00;101119.66;10338642;28;20058;-66
2023/01/10 17:14:37;;;;;;;1999.90;999.90;;;;;;;5.63;100.00;101104.56;10339118;28;20050;-66
2023/01/10 17:19:41;;;;;;;1999.90;999.90;;;;;;;5.52;100.00;101102.28;10337044;28;20057;-66
2023/01/10 17:24:43;;;;;;;1999.90;999.90;;;;;;;5.54;100.00;101071.91;10338804;28;20061;-65
2023/01/10 17:29:46;;;;;;;1999.90;999.90;;;;;;;5.50;100.00;101090.25;10337845;28;20482;-65
2023/01/10 17:34:48;;;;;;;1999.90;999.90;;;;;;;5.47;100.00;101078.22;10337752;28;20057;-65
2023/01/10 17:39:51;;;;;;;1999.90;999.90;;;;;;;5.54;100.00;101079.72;10337530;28;20387;-67
2023/01/10 17:44:53;;;;;;;1999.90;999.90;;;;;;;5.55;100.00;101076.22;10337961;28;20085;-67
2023/01/10 17:49:55;;;;;;;1999.90;999.90;;;;;;;5.58;100.00;101070.94;10334675;28;20100;-66
2023/01/10 17:54:58;;;;;;;1999.90;999.90;;;;;;;5.52;100.00;101068.53;10331057;28;20117;-66
2023/01/10 18:00:00;;;;;;;1999.90;999.90;;;;;;;5.64;100.00;101056.03;10335917;28;20120;-66
2023/01/10 18:05:03;;;;;;;1999.90;999.90;;;;;;;5.62;100.00;101056.09;10300134;28;20070;-66
2023/01/10 18:10:07;;;;;;;1999.90;999.90;;;;;;;5.60;100.00;101031.91;10335621;28;20433;-67
2023/01/10 18:15:10;;;;;;;1999.90;999.90;;;;;;;5.77;100.00;101023.56;10333079;28;20124;-65
2023/01/10 18:20:12;;;;;;;1999.90;999.90;;;;;;;5.84;100.00;101022.44;10333411;28;20054;-65
2023/01/10 18:25:16;;;;;;;1999.90;999.90;;;;;;;5.91;100.00;101023.94;10335743;28;20050;-66
2023/01/10 18:30:21;;;;;;;1999.90;999.90;;;;;;;5.88;100.00;100998.03;10336248;28;20137;-65
2023/01/10 18:35:24;;;;;;;1999.90;999.90;;;;;;;5.89;100.00;101002.34;10335113;28;20058;-66
2023/01/10 18:40:26;;;;;;;1999.90;999.90;;;;;;;5.87;100.00;100980.78;10333420;28;20515;-67
2023/01/10 18:45:31;;;;;;;1999.90;999.90;;;;;;;5.93;100.00;100972.78;10334112;28;20434;-67
2023/01/10 18:50:34;;;;;;;1999.90;999.90;;;;;;;5.95;100.00;100968.34;10333350;28;20497;-66
2023/01/10 18:55:36;;;;;;;1999.90;999.90;;;;;;;6.03;100.00;100967.25;10333104;28;20046;-67
2023/01/10 19:00:40;;;;;;;1999.90;999.90;;;;;;;6.06;100.00;100962.81;10333201;28;20045;-66
2023/01/10 19:05:43;;;;;;;1999.90;999.90;;;;;;;6.13;100.00;100953.03;10331585;28;20058;-66
2023/01/10 19:10:45;;;;;;;1999.90;999.90;;;;;;;6.08;100.00;100962.75;10333486;28;20046;-66
2023/01/10 19:16:08;;;;;;;1999.90;999.90;;;;;;;6.18;100.00;100956.31;10333949;28;20085;-66
2023/01/10 19:21:14;;;;;;;1999.90;999.90;;;;;;;6.39;100.00;100941.69;10333843;28;20054;-66
2023/01/10 19:26:17;;;;;;;1999.90;999.90;;;;;;;6.33;100.00;100945.34;10362860;28;20058;-66
2023/01/10 19:31:21;;;;;;;1999.90;999.90;;;;;;;6.42;100.00;100948.50;10342840;28;20046;-67
2023/01/10 19:36:24;;;;;;;1999.90;999.90;;;;;;;6.51;100.00;100949.00;10348110;28;20386;-66
2023/01/10 19:41:28;;;;;;;1999.90;999.90;;;;;;;6.52;100.00;100947.25;10332949;28;20050;-66
2023/01/10 19:46:32;;;;;;;1999.90;999.90;;;;;;;6.47;100.00;100939.63;10334066;28;20054;-66
2023/01/10 19:51:36;;;;;;;1999.90;999.90;;;;;;;6.48;100.00;100928.31;10332712;28;20054;-66
2023/01/10 19:56:39;;;;;;;1999.90;999.90;;;;;;;6.59;100.00;100938.31;10332067;28;20409;-66
2023/01/10 20:01:42;;;;;;;1999.90;999.90;;;;;;;6.61;100.00;100930.47;10333081;28;20410;-66
2023/01/10 20:06:46;;;;;;;1999.90;999.90;;;;;;;6.62;100.00;100917.38;10330804;28;20062;-66
2023/01/10 20:11:48;;;;;;;1999.90;999.90;;;;;;;6.69;100.00;100903.22;10330991;28;20050;-66
2023/01/10 20:16:51;;;;;;;1999.90;999.90;;;;;;;6.69;100.00;100908.44;10335448;28;20050;-67
2023/01/10 20:21:54;;;;;;;1999.90;999.90;;;;;;;6.75;100.00;100898.69;10338981;28;20073;-67
2023/01/10 20:26:59;;;;;;;1999.90;999.90;;;;;;;6.82;100.00;100880.16;10337747;28;20054;-67
2023/01/10 20:32:02;;;;;;;1999.90;999.90;;;;;;;6.89;100.00;100885.94;10337234;28;20050;-66
2023/01/10 20:37:04;;;;;;;1999.90;999.90;;;;;;;6.89;100.00;100883.34;10338755;28;20050;-66
2023/01/10 20:42:07;;;;;;;1999.90;999.90;;;;;;;6.93;100.00;100866.72;10339175;28;20050;-67
2023/01/10 20:47:09;;;;;;;1999.90;999.90;;;;;;;6.95;100.00;100874.47;10337153;28;20058;-67
2023/01/10 20:52:11;;;;;;;1999.90;999.90;;;;;;;7.00;100.00;100867.31;10339494;28;20046;-67
2023/01/10 20:57:14;;;;;;;1999.90;999.90;;;;;;;7.19;100.00;100862.16;10339817;28;20054;-66
2023/01/10 21:02:16;;;;;;;1999.90;999.90;;;;;;;7.20;100.00;100850.84;10339009;28;20054;-66
2023/01/10 21:07:18;;;;;;;1999.90;999.90;;;;;;;7.17;100.00;100849.22;10338757;28;20058;-67
2023/01/10 21:12:23;;;;;;;1999.90;999.90;;;;;;;7.35;100.00;100836.34;10337722;28;20097;-67
2023/01/10 21:17:28;;;;;;;1999.90;999.90;;;;;;;7.36;100.00;100823.25;10339093;28;20050;-66
2023/01/10 21:22:31;;;;;;;1999.90;999.90;;;;;;;7.30;100.00;100826.09;10338247;28;20047;-66
2023/01/10 21:27:33;;;;;;;1999.90;999.90;;;;;;;7.24;100.00;100814.19;10336157;28;20457;-66
2023/01/10 21:32:35;;;;;;;1999.90;999.90;;;;;;;7.30;100.00;100817.47;10336580;28;20445;-66
2023/01/10 21:37:38;;;;;;;1999.90;999.90;;;;;;;7.29;100.00;100816.59;10337797;28;20050;-66
2023/01/10 21:42:43;;;;;;;1999.90;999.90;;;;;;;7.39;100.00;100817.03;10337900;28;20054;-65
2023/01/10 21:47:46;;;;;;;1999.90;999.90;;;;;;;7.54;100.00;100810.31;10337974;28;20086;-66
2023/01/10 21:52:48;;;;;;;1999.90;999.90;;;;;;;7.46;100.00;100792.41;10334740;28;20054;-66
2023/01/10 21:57:51;;;;;;;1999.90;999.90;;;;;;;7.49;100.00;100809.69;10336646;28;20050;-66
2023/01/10 22:02:54;;;;;;;1999.90;999.90;;;;;;;7.58;100.00;100791.00;10334307;28;20046;-66
2023/01/10 22:07:57;;;;;;;1999.90;999.90;;;;;;;7.61;100.00;100796.91;10333904;28;20054;-66
2023/01/10 22:12:59;;;;;;;1999.90;999.90;;;;;;;7.62;100.00;100788.22;10335184;28;20050;-66
2023/01/10 22:18:01;;;;;;;1999.90;999.90;;;;;;;7.77;100.00;100797.09;10335241;28;20489;-66
2023/01/10 22:23:04;;;;;;;1999.90;999.90;;;;;;;7.81;100.00;100792.59;10333895;28;20410;-67
2023/01/10 22:28:06;;;;;;;1999.90;999.90;;;;;;;7.96;100.00;100783.22;10335396;28;20387;-67